createdAt,value
2022-12-15T00:04:41.071Z,-1.96
2022-12-15T00:10:03.307Z,-1.86
2022-12-15T00:15:25.091Z,-1.92
2022-12-15T00:20:45.732Z,-2.02
2022-12-15T00:26:08.126Z,-1.65
2022-12-15T00:31:28.972Z,-1.61
2022-12-15T00:36:50.109Z,-1.80
2022-12-15T00:41:55.053Z,-1.78
2022-12-15T00:46:58.767Z,-2.24
2022-12-15T00:52:19.630Z,-2.53
2022-12-15T00:57:42.092Z,-2.66
2022-12-15T01:03:03.133Z,-2.74
2022-12-15T01:08:24.177Z,-2.70
2022-12-15T01:13:46.425Z,-2.79
2022-12-15T01:19:10.795Z,-2.80
2022-12-15T01:24:14.344Z,-2.76
2022-12-15T01:29:19.271Z,-2.59
2022-12-15T01:34:23.154Z,-2.63
2022-12-15T01:39:46.801Z,-2.67
2022-12-15T01:44:55.267Z,-2.47
2022-12-15T01:49:58.916Z,-2.30
2022-12-15T01:55:02.648Z,-2.13
2022-12-15T02:00:10.038Z,-1.78
2022-12-15T02:05:13.677Z,-1.76
2022-12-15T02:10:17.401Z,-1.79
2022-12-15T02:15:29.046Z,-1.76
2022-12-15T02:20:47.740Z,-1.54
2022-12-15T02:26:19.243Z,-1.73
2022-12-15T02:31:49.843Z,-1.43
2022-12-15T02:36:59.325Z,-1.31
2022-12-15T02:42:02.753Z,-1.30
2022-12-15T02:47:33.814Z,-1.42
2022-12-15T02:52:51.799Z,-1.29
2022-12-15T02:57:59.846Z,-1.26
2022-12-15T03:03:05.704Z,-1.35
2022-12-15T03:08:09.516Z,-1.47
2022-12-15T03:13:14.338Z,-1.45
2022-12-15T03:18:19.555Z,-1.48
2022-12-15T03:23:23.341Z,-1.61
2022-12-15T03:28:26.927Z,-1.71
2022-12-15T03:33:34.057Z,-1.64
2022-12-15T03:38:37.831Z,-1.59
2022-12-15T03:43:41.367Z,-1.31
2022-12-15T03:48:46.282Z,-1.24
2022-12-15T03:53:49.710Z,-1.42
2022-12-15T03:58:53.118Z,-1.18
2022-12-15T04:04:00.849Z,-1.15
2022-12-15T04:09:04.685Z,-1.09
2022-12-15T04:14:08.246Z,-1.01
2022-12-15T04:19:30.414Z,-1.01
2022-12-15T04:24:51.177Z,-0.91
2022-12-15T04:30:12.199Z,-0.77
2022-12-15T04:35:34.460Z,-0.85
2022-12-15T04:40:55.767Z,-1.00
2022-12-15T04:46:16.660Z,-0.92
2022-12-15T04:51:38.846Z,-0.97
2022-12-15T04:56:59.599Z,-0.78
2022-12-15T05:02:20.546Z,-0.65
2022-12-15T05:07:43.371Z,-0.80
2022-12-15T05:13:03.906Z,-1.02
2022-12-15T05:18:24.706Z,-0.92
2022-12-15T05:23:47.066Z,-0.67
2022-12-15T05:29:08.120Z,-0.81
2022-12-15T05:34:11.531Z,-0.79
2022-12-15T05:39:16.541Z,-0.64
2022-12-15T05:44:20.564Z,-0.55
2022-12-15T05:49:24.654Z,-0.74
2022-12-15T05:54:29.628Z,-0.85
2022-12-15T05:59:33.162Z,-1.16
2022-12-15T06:04:36.903Z,-1.11
2022-12-15T06:09:42.040Z,-1.18
2022-12-15T06:14:45.694Z,-0.86
2022-12-15T06:19:49.212Z,-0.83
2022-12-15T06:24:54.134Z,-0.64
2022-12-15T06:29:57.906Z,-0.67
2022-12-15T06:35:02.153Z,-0.66
2022-12-15T06:40:09.603Z,-0.66
2022-12-15T06:45:13.203Z,-0.84
2022-12-15T06:50:16.762Z,-0.79
2022-12-15T06:55:21.679Z,-0.64
2022-12-15T07:00:25.386Z,-0.70
2022-12-15T07:05:28.955Z,-0.81
2022-12-15T07:10:34.040Z,-0.60
2022-12-15T07:15:37.717Z,-0.99
2022-12-15T07:20:41.348Z,-1.01
2022-12-15T07:25:46.354Z,-0.64
2022-12-15T07:30:49.892Z,-0.65
2022-12-15T07:35:57.019Z,-0.78
2022-12-15T07:41:04.893Z,-0.73
2022-12-15T07:46:09.283Z,-1.01
2022-12-15T07:51:19.360Z,-1.18
2022-12-15T07:56:25.463Z,-0.71
2022-12-15T08:01:29.120Z,-0.42
2022-12-15T08:06:32.547Z,-0.69
2022-12-15T08:11:37.809Z,-0.33
2022-12-15T08:16:41.408Z,-1.00
2022-12-15T08:21:46.905Z,-1.43
2022-12-15T08:26:53.138Z,-1.89
2022-12-15T08:31:56.659Z,-1.74
2022-12-15T08:37:00.270Z,-1.44
2022-12-15T08:42:05.391Z,-1.22
2022-12-15T08:47:09.007Z,-1.53
2022-12-15T08:52:13.294Z,-1.85
2022-12-15T08:57:18.328Z,-2.77
2022-12-15T09:02:22.483Z,-2.84
2022-12-15T09:07:26.202Z,-3.10
2022-12-15T09:12:31.140Z,-2.49
2022-12-15T09:17:34.609Z,-2.73
2022-12-15T09:22:38.354Z,-2.44
2022-12-15T09:27:43.432Z,-3.82
2022-12-15T09:32:47.176Z,-4.10
2022-12-15T09:37:51.997Z,-3.78
2022-12-15T09:43:25.659Z,-4.05
2022-12-15T09:48:25.103Z,-4.14
2022-12-15T09:53:54.159Z,-3.95
2022-12-15T09:59:01.493Z,-4.21
2022-12-15T10:04:12.825Z,-3.96
2022-12-15T10:09:21.667Z,-4.06
2022-12-15T10:14:32.329Z,-3.99
2022-12-15T10:19:43.273Z,-4.00
2022-12-15T10:30:15.268Z,-3.83
2022-12-15T10:35:22.352Z,-3.56
2022-12-15T10:40:50.224Z,-3.48
2022-12-15T10:46:05.719Z,-3.64
2022-12-15T10:51:15.409Z,-3.29
2022-12-15T10:56:26.120Z,-3.56
2022-12-15T11:01:36.545Z,-3.73
2022-12-15T11:06:44.038Z,-3.80
2022-12-15T11:12:11.966Z,-3.60
2022-12-15T11:17:19.663Z,-3.42
2022-12-15T11:22:32.904Z,-3.33
2022-12-15T11:27:39.590Z,-3.83
2022-12-15T11:32:49.103Z,-3.94
2022-12-15T11:37:58.079Z,-3.63
2022-12-15T11:43:21.112Z,-3.82
2022-12-15T11:48:33.868Z,-4.12
2022-12-15T11:54:02.088Z,-3.86
2022-12-15T11:59:22.503Z,-4.01
2022-12-15T12:04:31.868Z,-4.08
2022-12-15T12:09:38.167Z,-4.16
2022-12-15T12:14:51.630Z,-4.15
2022-12-15T12:20:03.864Z,-4.47
2022-12-15T12:25:16.128Z,-4.27
2022-12-15T12:30:21.656Z,-4.43
2022-12-15T12:35:33.612Z,-4.61
2022-12-15T12:40:53.696Z,-4.53
2022-12-15T12:46:00.316Z,-4.52
2022-12-15T12:51:28.606Z,-4.55
2022-12-15T12:56:41.729Z,-4.50
2022-12-15T13:01:45.304Z,-4.43
2022-12-15T13:07:05.888Z,-4.77
2022-12-15T13:12:53.685Z,-4.51
2022-12-15T13:17:59.791Z,-4.46
2022-12-15T13:23:44.214Z,-4.40
2022-12-15T13:28:53.414Z,-4.46
2022-12-15T13:34:13.805Z,-4.52
2022-12-15T13:39:50.199Z,-4.34
2022-12-15T13:44:58.998Z,-4.25
2022-12-15T13:50:08.709Z,-4.21
2022-12-15T13:55:27.247Z,-4.23
2022-12-15T14:00:33.863Z,-4.27
2022-12-15T14:05:39.161Z,-4.12
2022-12-15T14:10:44.855Z,-3.82
2022-12-15T14:15:56.731Z,-4.09
2022-12-15T14:21:01.711Z,-4.25
2022-12-15T14:26:07.712Z,-3.95
2022-12-15T14:31:18.539Z,-4.15
2022-12-15T14:36:22.699Z,-4.19
2022-12-15T14:41:28.972Z,-3.91
2022-12-15T14:46:34.688Z,-4.00
2022-12-15T14:51:44.279Z,-4.14
2022-12-15T14:57:00.352Z,-4.24
2022-12-15T15:02:14.765Z,-4.19
2022-12-15T15:07:20.167Z,-4.15
2022-12-15T15:12:25.077Z,-4.13
2022-12-15T15:17:39.022Z,-4.37
2022-12-15T15:22:44.272Z,-4.51
2022-12-15T15:27:47.907Z,-4.57
2022-12-15T15:32:57.440Z,-4.86
2022-12-15T15:38:06.226Z,-4.64
2022-12-15T15:43:13.115Z,-4.82
2022-12-15T15:48:22.889Z,-4.90
2022-12-15T15:53:26.741Z,-5.09
2022-12-15T15:58:30.526Z,-5.31
2022-12-15T16:03:36.264Z,-5.07
2022-12-15T16:08:39.807Z,-4.97
2022-12-15T16:13:43.355Z,-5.07
2022-12-15T16:18:48.360Z,-5.17
2022-12-15T16:23:51.988Z,-5.20
2022-12-15T16:28:55.483Z,-5.08
2022-12-15T16:34:00.629Z,-5.35
2022-12-15T16:39:04.284Z,-5.23
2022-12-15T16:44:12.830Z,-5.20
2022-12-15T16:49:17.748Z,-5.34
2022-12-15T16:54:24.492Z,-5.31
2022-12-15T16:59:33.476Z,-5.20
2022-12-15T17:04:39.468Z,-5.44
2022-12-15T17:09:43.185Z,-5.35
2022-12-15T17:14:47.250Z,-5.40
2022-12-15T17:20:27.261Z,-5.86
2022-12-15T17:25:27.174Z,-5.59
2022-12-15T17:30:41.357Z,-5.42
2022-12-15T17:35:47.280Z,-5.23
2022-12-15T17:40:52.149Z,-5.48
2022-12-15T17:45:56.027Z,-5.33
2022-12-15T17:51:01.001Z,-5.13
2022-12-15T17:56:04.927Z,-5.10
2022-12-15T18:01:10.863Z,-5.29
2022-12-15T18:06:16.715Z,-5.16
2022-12-15T18:11:20.708Z,-5.14
2022-12-15T18:16:24.177Z,-5.10
2022-12-15T18:21:29.006Z,-4.89
2022-12-15T18:26:38.091Z,-5.06
2022-12-15T18:31:43.251Z,-5.06
2022-12-15T18:36:48.076Z,-5.00
2022-12-15T18:41:51.668Z,-4.91
2022-12-15T18:46:56.006Z,-4.91
2022-12-15T18:52:00.919Z,-4.12
2022-12-15T18:57:04.462Z,-4.74
2022-12-15T19:02:08.964Z,-4.74
2022-12-15T19:07:13.570Z,-4.98
2022-12-15T19:12:20.889Z,-4.75
2022-12-15T19:17:42.623Z,-4.91
2022-12-15T19:22:49.004Z,-4.67
2022-12-15T19:27:52.740Z,-4.58
2022-12-15T19:32:56.777Z,-4.44
2022-12-15T19:38:04.314Z,-4.49
2022-12-15T19:43:07.839Z,-4.21
2022-12-15T19:48:12.139Z,-4.27
2022-12-15T19:53:22.878Z,-4.32
2022-12-15T19:58:30.035Z,-4.33
2022-12-15T20:03:34.531Z,-4.14
2022-12-15T20:08:42.131Z,-4.08
2022-12-15T20:13:45.724Z,-4.28
2022-12-15T20:18:50.948Z,-4.05
2022-12-15T20:24:00.540Z,-4.24
2022-12-15T20:29:04.855Z,-4.29
2022-12-15T20:34:08.377Z,-4.08
2022-12-15T20:39:21.684Z,-4.06
2022-12-15T20:44:26.055Z,-4.18
2022-12-15T20:49:29.686Z,-4.09
2022-12-15T20:54:34.519Z,-3.77
2022-12-15T20:59:37.974Z,-3.90
2022-12-15T21:04:41.506Z,-3.95
2022-12-15T21:09:46.278Z,-3.86
2022-12-15T21:14:50.322Z,-3.92
2022-12-15T21:19:54.924Z,-3.73
2022-12-15T21:25:00.737Z,-3.87
2022-12-15T21:30:07.467Z,-3.85
2022-12-15T21:35:14.391Z,-3.90
2022-12-15T21:40:21.376Z,-3.77
2022-12-15T21:45:26.828Z,-3.67
2022-12-15T21:50:30.246Z,-3.73
2022-12-15T21:55:35.374Z,-3.64
2022-12-15T22:00:45.317Z,-3.47
2022-12-15T22:05:48.980Z,-3.38
2022-12-15T22:10:54.047Z,-3.36
2022-12-15T22:15:58.267Z,-3.23
2022-12-15T22:21:01.703Z,-3.06
2022-12-15T22:26:06.693Z,-3.28
2022-12-15T22:31:11.798Z,-3.19
2022-12-15T22:36:15.166Z,-3.18
2022-12-15T22:41:23.275Z,-2.97
2022-12-15T22:46:27.078Z,-2.95
2022-12-15T22:51:30.517Z,-2.87
2022-12-15T22:56:40.724Z,-2.80
2022-12-15T23:01:45.070Z,-2.92
2022-12-15T23:06:48.775Z,-2.78
2022-12-15T23:11:53.968Z,-2.70
2022-12-15T23:16:58.525Z,-2.74
2022-12-15T23:22:02.028Z,-2.75
2022-12-15T23:27:10.658Z,-2.99
2022-12-15T23:32:14.134Z,-2.78
2022-12-15T23:37:17.578Z,-2.45
2022-12-15T23:42:22.290Z,-2.55
2022-12-15T23:47:25.521Z,-2.28
2022-12-15T23:52:30.112Z,-2.38
2022-12-15T23:57:34.972Z,-2.45
